Time;durP1;ratioP1;P1;durP2;ratioP2;P2;SDS_P1;SDS_P2;PMS_P1;PMS_P2;Temp;Humidity;BMP_temperature;BMP_pressure;BME280_temperature;BME280_humidity;BME280_pressure;Samples;Min_cycle;Max_cycle;Signal;HPM_P1;HPM_P2
2022/08/03 00:00:07;;;;;;;9.77;6.65;;;18.30;99.90;;;;;;5057023;28;20418;-54
2022/08/03 00:02:38;;;;;;;13.48;7.75;;;18.30;99.90;;;;;;5056658;28;20031;-54
2022/08/03 00:05:07;;;;;;;14.27;8.00;;;18.40;99.90;;;;;;5056924;28;20470;-54
2022/08/03 00:07:33;;;;;;;12.85;7.82;;;18.30;99.90;;;;;;5056956;28;20021;-54
2022/08/03 00:09:59;;;;;;;13.27;7.13;;;18.40;99.90;;;;;;5056663;28;20022;-54
2022/08/03 00:12:25;;;;;;;13.18;7.72;;;18.30;99.90;;;;;;5056674;28;20036;-54
2022/08/03 00:14:51;;;;;;;11.60;7.55;;;18.30;99.90;;;;;;5056693;28;20079;-54
2022/08/03 00:17:16;;;;;;;9.48;7.32;;;18.20;99.90;;;;;;5056549;28;20106;-54
2022/08/03 00:19:42;;;;;;;11.75;6.90;;;18.20;99.90;;;;;;5056704;28;20032;-54
2022/08/03 00:22:08;;;;;;;11.07;6.82;;;18.20;99.90;;;;;;5056550;28;20021;-54
2022/08/03 00:24:35;;;;;;;11.23;6.90;;;18.20;99.90;;;;;;5056516;28;20033;-54
2022/08/03 00:27:01;;;;;;;10.30;7.40;;;18.20;99.90;;;;;;5056607;28;20398;-54
2022/08/03 00:29:27;;;;;;;13.32;6.93;;;18.10;99.90;;;;;;5056645;28;20043;-54
2022/08/03 00:31:52;;;;;;;13.63;7.60;;;18.10;99.90;;;;;;5056632;28;20028;-54
2022/08/03 00:34:18;;;;;;;10.75;7.47;;;18.10;99.90;;;;;;5056530;28;20028;-54
2022/08/03 00:36:44;;;;;;;12.50;7.28;;;18.20;99.90;;;;;;5056203;28;20029;-54
2022/08/03 00:39:10;;;;;;;11.55;7.93;;;18.10;99.90;;;;;;5056170;28;20057;-54
2022/08/03 00:41:36;;;;;;;12.45;7.15;;;18.20;99.90;;;;;;5056377;28;20021;-54
2022/08/03 00:44:02;;;;;;;11.13;7.88;;;18.20;99.90;;;;;;5056161;28;20075;-54
2022/08/03 00:46:28;;;;;;;10.45;6.78;;;18.10;99.90;;;;;;5056076;28;20051;-54
2022/08/03 00:48:54;;;;;;;12.85;6.85;;;18.00;99.90;;;;;;5056231;28;20036;-54
2022/08/03 00:51:21;;;;;;;10.43;7.72;;;18.10;99.90;;;;;;5055629;28;20029;-54
2022/08/03 00:53:48;;;;;;;11.90;6.60;;;18.10;99.90;;;;;;5055710;28;20028;-54
2022/08/03 00:56:15;;;;;;;13.60;6.75;;;18.10;99.90;;;;;;5056063;28;20099;-54
2022/08/03 00:58:43;;;;;;;9.73;7.15;;;18.00;99.90;;;;;;5055756;28;20029;-54
2022/08/03 01:01:11;;;;;;;12.13;7.47;;;17.90;99.90;;;;;;5055881;28;20107;-54
2022/08/03 01:03:37;;;;;;;9.13;6.75;;;17.90;99.90;;;;;;5055969;28;20028;-54
2022/08/03 01:06:17;;;;;;;10.60;7.15;;;17.80;99.90;;;;;;5055617;28;20047;-54
2022/08/03 01:09:11;;;;;;;11.07;6.93;;;17.80;99.90;;;;;;5055730;28;20021;-54
2022/08/03 01:11:47;;;;;;;13.10;8.18;;;17.70;99.90;;;;;;5053962;28;20040;-54
2022/08/03 01:14:19;;;;;;;17.00;8.32;;;17.70;99.90;;;;;;5055401;28;20433;-54
2022/08/03 01:16:48;;;;;;;11.93;8.80;;;17.70;99.90;;;;;;5055641;28;20501;-54
2022/08/03 01:19:31;;;;;;;12.55;8.65;;;17.70;99.90;;;;;;5055457;28;20467;-54
2022/08/03 01:22:15;;;;;;;13.73;8.82;;;17.60;99.90;;;;;;5055545;28;20029;-54
2022/08/03 01:25:12;;;;;;;15.15;8.48;;;17.70;99.90;;;;;;5055421;28;20025;-54
2022/08/03 01:27:56;;;;;;;14.40;8.10;;;17.70;99.90;;;;;;5055463;28;20025;-54
2022/08/03 01:30:26;;;;;;;10.82;7.07;;;17.60;99.90;;;;;;5055352;28;20032;-54
2022/08/03 01:33:00;;;;;;;;;;;17.50;99.90;;;;;;5055715;28;20075;-54
2022/08/03 01:35:43;;;;;;;10.35;6.88;;;17.50;99.90;;;;;;5055121;28;19951;-54
2022/08/03 01:38:14;;;;;;;10.82;6.80;;;17.60;99.90;;;;;;5054974;28;20528;-54
2022/08/03 01:40:43;;;;;;;10.60;7.03;;;17.60;99.90;;;;;;5055177;28;20032;-54
2022/08/03 01:43:15;;;;;;;11.05;7.00;;;17.60;99.90;;;;;;5055333;28;20028;-54
2022/08/03 01:45:43;;;;;;;9.80;6.80;;;17.60;99.90;;;;;;5055119;28;20037;-54
2022/08/03 01:48:11;;;;;;;12.05;7.28;;;17.50;99.90;;;;;;5054998;28;20029;-54
2022/08/03 01:50:39;;;;;;;10.15;6.80;;;17.50;99.90;;;;;;5054731;28;20372;-54
2022/08/03 01:53:06;;;;;;;13.75;7.68;;;17.50;99.90;;;;;;5055045;28;20024;-54
2022/08/03 01:55:35;;;;;;;9.57;7.32;;;17.40;99.90;;;;;;5054850;28;20107;-54
2022/08/03 01:58:03;;;;;;;13.90;8.52;;;17.40;99.90;;;;;;5054809;28;20033;-54
2022/08/03 02:00:31;;;;;;;10.43;7.10;;;17.40;99.90;;;;;;5055406;28;20029;-54
2022/08/03 02:02:57;;;;;;;12.82;7.18;;;17.40;99.90;;;;;;5054580;28;20083;-54
2022/08/03 02:05:25;;;;;;;8.50;7.03;;;17.30;99.90;;;;;;5054661;28;20045;-54
2022/08/03 02:07:53;;;;;;;9.48;7.07;;;17.30;99.90;;;;;;5054684;28;20021;-54
2022/08/03 02:10:19;;;;;;;11.38;7.50;;;17.30;99.90;;;;;;5054502;28;20418;-54
2022/08/03 02:12:48;;;;;;;8.18;6.72;;;17.30;99.90;;;;;;5054419;28;20039;-54
2022/08/03 02:15:15;;;;;;;8.63;6.65;;;17.20;99.90;;;;;;5054460;28;20025;-54
2022/08/03 02:17:45;;;;;;;9.18;6.40;;;17.20;99.90;;;;;;5054611;28;20036;-54
2022/08/03 02:20:12;;;;;;;8.48;6.78;;;17.20;99.90;;;;;;5054484;28;20040;-54
2022/08/03 02:22:43;;;;;;;10.48;7.55;;;17.20;99.90;;;;;;5054545;28;20382;-54
2022/08/03 02:25:11;;;;;;;9.95;7.05;;;17.20;99.90;;;;;;5054228;28;20021;-54
2022/08/03 02:27:41;;;;;;;12.98;7.53;;;17.20;99.90;;;;;;5054575;28;20032;-54
2022/08/03 02:30:11;;;;;;;7.78;6.68;;;17.10;99.90;;;;;;5054220;28;20036;-54
2022/08/03 02:32:39;;;;;;;9.45;6.47;;;17.10;99.90;;;;;;5054244;28;20192;-54
2022/08/03 02:35:10;;;;;;;7.57;6.28;;;17.00;99.90;;;;;;5054289;28;20053;-54
2022/08/03 02:37:42;;;;;;;8.45;6.55;;;16.90;99.90;;;;;;5054312;28;20463;-54
2022/08/03 02:40:10;;;;;;;12.30;7.95;;;16.90;99.90;;;;;;5054160;28;20064;-54
2022/08/03 02:42:38;;;;;;;12.10;7.63;;;17.00;99.90;;;;;;5054283;28;20035;-54
2022/08/03 02:45:09;;;;;;;10.10;6.47;;;17.00;99.90;;;;;;5054242;28;20529;-54
2022/08/03 02:47:36;;;;;;;;;;;17.00;99.90;;;;;;5054636;28;20471;-54
2022/08/03 02:50:03;;;;;;;9.73;6.50;;;17.00;99.90;;;;;;5054262;28;19962;-54
2022/08/03 02:52:31;;;;;;;9.98;5.63;;;17.00;99.90;;;;;;5054056;28;20025;-54
2022/08/03 02:55:00;;;;;;;11.15;7.05;;;17.00;99.90;;;;;;5054151;28;20108;-54
2022/08/03 02:57:28;;;;;;;8.18;6.80;;;17.00;99.90;;;;;;5054050;28;20391;-54
2022/08/03 02:59:56;;;;;;;13.32;8.57;;;17.00;99.90;;;;;;5053958;28;20029;-54
2022/08/03 03:02:23;;;;;;;13.55;8.73;;;17.10;99.90;;;;;;5054157;28;20029;-54
2022/08/03 03:04:52;;;;;;;14.52;7.43;;;17.00;99.90;;;;;;5053910;28;20116;-54
2022/08/03 03:07:19;;;;;;;13.55;7.47;;;16.90;99.90;;;;;;5053968;28;20024;-54
2022/08/03 03:09:45;;;;;;;12.77;7.75;;;16.90;99.90;;;;;;5054203;28;20037;-54
2022/08/03 03:12:12;;;;;;;11.70;7.38;;;16.80;99.90;;;;;;5053940;28;20499;-54
2022/08/03 03:14:39;;;;;;;10.55;7.20;;;16.80;99.90;;;;;;5053947;28;20112;-54
2022/08/03 03:17:10;;;;;;;10.63;6.70;;;16.80;99.90;;;;;;5057959;28;20032;-54
2022/08/03 03:19:39;;;;;;;9.75;6.53;;;16.80;99.90;;;;;;5057931;28;20111;-54
2022/08/03 03:22:07;;;;;;;10.02;6.75;;;16.80;99.90;;;;;;5057816;28;20390;-54
2022/08/03 03:24:34;;;;;;;8.27;6.35;;;16.80;99.90;;;;;;5057745;28;20044;-54
2022/08/03 03:27:01;;;;;;;10.60;6.85;;;16.80;99.90;;;;;;5057785;28;20047;-54
2022/08/03 03:29:28;;;;;;;12.75;6.78;;;16.80;99.90;;;;;;5057589;28;20482;-54
2022/08/03 03:31:56;;;;;;;7.13;6.25;;;16.70;99.90;;;;;;5057649;28;20033;-54
2022/08/03 03:34:22;;;;;;;7.68;6.57;;;16.70;99.90;;;;;;5057620;28;20064;-54
2022/08/03 03:36:48;;;;;;;8.48;6.05;;;16.70;99.90;;;;;;5057398;28;20029;-54
2022/08/03 03:39:14;;;;;;;10.43;6.07;;;16.60;99.90;;;;;;5057726;28;20394;-54
2022/08/03 03:41:40;;;;;;;9.27;6.05;;;16.50;99.90;;;;;;5057465;28;20032;-54
2022/08/03 03:44:06;;;;;;;10.32;6.20;;;16.50;99.90;;;;;;5057402;28;20122;-54
2022/08/03 03:46:32;;;;;;;9.20;6.90;;;16.50;99.90;;;;;;5057501;28;20029;-54
2022/08/03 03:48:58;;;;;;;9.43;6.38;;;16.60;99.90;;;;;;5057246;28;20470;-54
2022/08/03 03:51:24;;;;;;;7.65;6.50;;;16.60;99.90;;;;;;5057132;28;20126;-54
2022/08/03 03:53:58;;;;;;;9.32;7.20;;;16.60;99.90;;;;;;5057672;28;20108;-54
2022/08/03 03:56:24;;;;;;;12.65;7.78;;;16.60;99.90;;;;;;5057217;28;20025;-54
2022/08/03 03:58:50;;;;;;;9.23;7.32;;;16.60;99.90;;;;;;5057119;28;20089;-54
2022/08/03 04:01:16;;;;;;;14.15;6.75;;;16.60;99.90;;;;;;5057058;28;20032;-54
2022/08/03 04:03:42;;;;;;;15.40;7.10;;;16.60;99.90;;;;;;5057004;28;20467;-54
2022/08/03 04:11:33;;;;;;;7.88;5.60;;;16.70;99.90;;;;;;5053327;28;20594;-54
2022/08/03 04:14:24;;;;;;;7.35;5.40;;;16.80;99.90;;;;;;5056765;28;20549;-54
2022/08/03 04:16:56;;;;;;;7.00;5.82;;;16.80;99.90;;;;;;5056683;28;20033;-54
2022/08/03 04:19:37;;;;;;;7.30;6.20;;;16.80;99.90;;;;;;5056711;28;20099;-54
2022/08/03 04:22:10;;;;;;;8.77;6.43;;;16.90;99.90;;;;;;5056820;28;20087;-54
2022/08/03 04:24:52;;;;;;;8.00;5.50;;;16.90;99.90;;;;;;5056711;28;20499;-54
2022/08/03 04:27:26;;;;;;;9.50;5.70;;;16.90;99.90;;;;;;5055261;28;20029;-54
2022/08/03 04:29:54;;;;;;;13.93;7.22;;;16.90;99.90;;;;;;5056487;28;20036;-54
2022/08/03 04:32:24;;;;;;;13.18;7.28;;;17.00;99.90;;;;;;5056482;28;20052;-54
2022/08/03 04:34:51;;;;;;;14.23;7.70;;;17.10;99.90;;;;;;5056465;28;20040;-54
2022/08/03 04:37:46;;;;;;;11.88;7.75;;;17.10;99.90;;;;;;5056253;28;20021;-55
2022/08/03 04:40:30;;;;;;;12.32;7.22;;;17.30;99.90;;;;;;5052344;28;20088;-54
2022/08/03 04:42:58;;;;;;;18.70;7.93;;;17.40;99.90;;;;;;5056200;28;20029;-54
2022/08/03 04:45:26;;;;;;;13.32;7.63;;;17.50;99.90;;;;;;5056420;28;20036;-54
2022/08/03 04:47:53;;;;;;;11.75;7.07;;;17.70;99.90;;;;;;5056144;28;20100;-54
2022/08/03 04:50:19;;;;;;;9.18;6.35;;;17.70;99.90;;;;;;5056210;28;20024;-54
2022/08/03 04:53:04;;;;;;;11.23;6.43;;;17.90;99.90;;;;;;5056049;28;20036;-54
2022/08/03 04:55:31;;;;;;;10.38;6.70;;;17.90;99.90;;;;;;5055802;28;20044;-54
2022/08/03 04:57:58;;;;;;;9.93;7.07;;;18.00;99.90;;;;;;5056054;28;20027;-54
2022/08/03 05:00:25;;;;;;;11.00;6.55;;;18.10;99.90;;;;;;5038004;28;20445;-54
2022/08/03 05:02:52;;;;;;;14.25;7.05;;;18.20;99.90;;;;;;5055823;28;20033;-54
2022/08/03 05:05:19;;;;;;;9.80;6.82;;;18.30;99.90;;;;;;5055970;28;20040;-54
2022/08/03 05:07:45;;;;;;;17.77;8.02;;;18.40;99.90;;;;;;5055641;28;20108;-54
2022/08/03 05:10:12;;;;;;;13.13;7.32;;;18.60;99.90;;;;;;5050541;28;20137;-54
2022/08/03 05:12:38;;;;;;;11.68;6.47;;;18.60;99.90;;;;;;5036398;28;20029;-54
2022/08/03 05:15:06;;;;;;;15.60;7.53;;;18.70;99.90;;;;;;5041104;28;20501;-54
2022/08/03 05:17:35;;;;;;;14.48;8.90;;;18.80;99.90;;;;;;5054837;28;20069;-55
2022/08/03 05:20:03;;;;;;;17.05;8.60;;;18.80;99.90;;;;;;5054577;28;20125;-55
2022/08/03 05:22:29;;;;;;;12.48;7.68;;;18.90;99.90;;;;;;5045685;28;20063;-54
2022/08/03 05:24:55;;;;;;;13.55;7.63;;;19.00;99.90;;;;;;5051363;28;20025;-55
2022/08/03 05:27:21;;;;;;;11.25;7.50;;;19.10;99.90;;;;;;5043801;28;20121;-55
2022/08/03 05:29:50;;;;;;;12.98;7.75;;;19.30;99.90;;;;;;5043192;28;20044;-54
2022/08/03 05:32:16;;;;;;;25.88;10.05;;;19.40;99.90;;;;;;5055283;28;20036;-54
2022/08/03 05:34:43;;;;;;;19.70;10.23;;;19.40;99.90;;;;;;5055310;28;20087;-54
2022/08/03 05:37:09;;;;;;;23.70;10.18;;;19.60;99.90;;;;;;5053827;28;20025;-54
2022/08/03 05:39:35;;;;;;;23.40;10.63;;;19.70;99.90;;;;;;5052198;28;20029;-54
2022/08/03 05:42:03;;;;;;;22.15;9.80;;;19.80;99.90;;;;;;5046106;28;20033;-54
2022/08/03 05:44:29;;;;;;;20.23;10.50;;;19.80;99.90;;;;;;5044396;28;20445;-54
2022/08/03 05:46:55;;;;;;;27.48;11.05;;;19.90;99.90;;;;;;5053937;28;20086;-54
2022/08/03 05:49:22;;;;;;;19.88;10.55;;;20.00;99.90;;;;;;5054033;28;20025;-54
2022/08/03 05:51:48;;;;;;;18.75;9.82;;;20.20;99.90;;;;;;5041445;28;20041;-55
2022/08/03 05:54:14;;;;;;;21.00;10.80;;;20.30;99.90;;;;;;5035979;28;20074;-55
2022/08/03 05:56:40;;;;;;;16.45;9.60;;;20.40;99.90;;;;;;5053648;28;20044;-54
2022/08/03 05:59:06;;;;;;;18.42;10.75;;;20.40;99.90;;;;;;5054665;28;20036;-55
2022/08/03 06:01:32;;;;;;;17.98;9.80;;;20.60;99.90;;;;;;5048845;28;20452;-55
2022/08/03 06:03:58;;;;;;;17.95;9.63;;;20.60;99.90;;;;;;5038139;28;20061;-55
2022/08/03 06:06:24;;;;;;;17.92;9.18;;;20.70;99.90;;;;;;5043119;28;20116;-55
2022/08/03 06:08:50;;;;;;;16.05;8.65;;;20.90;99.90;;;;;;5047854;28;20108;-55
2022/08/03 06:11:16;;;;;;;16.83;8.73;;;21.10;99.90;;;;;;5054358;28;20566;-55
2022/08/03 06:13:43;;;;;;;17.55;8.63;;;21.30;99.90;;;;;;5045151;28;20025;-55
2022/08/03 06:16:09;;;;;;;23.10;8.82;;;21.40;99.90;;;;;;5054086;28;20041;-55
2022/08/03 06:18:35;;;;;;;25.65;10.27;;;21.50;99.90;;;;;;5054306;28;20096;-55
2022/08/03 06:21:02;;;;;;;20.40;11.00;;;21.60;99.90;;;;;;5049899;28;20041;-55
2022/08/03 06:23:28;;;;;;;15.95;9.13;;;21.60;99.90;;;;;;5034027;28;20021;-55
2022/08/03 06:25:54;;;;;;;17.05;10.13;;;21.80;99.90;;;;;;5034094;28;20052;-55
2022/08/03 06:28:21;;;;;;;21.33;10.30;;;21.80;99.90;;;;;;5034239;28;20021;-55
2022/08/03 06:30:47;;;;;;;16.38;9.07;;;22.00;99.90;;;;;;5043329;28;20021;-55
2022/08/03 06:33:13;;;;;;;27.50;10.98;;;22.20;99.90;;;;;;5053958;28;20025;-55
2022/08/03 06:47:23;;;;;;;21.88;10.23;;;23.20;99.90;;;;;;5030894;28;20498;-55
2022/08/03 06:49:49;;;;;;;18.55;10.07;;;23.40;98.70;;;;;;5033148;28;20033;-55
2022/08/03 06:52:15;;;;;;;21.10;9.95;;;23.50;98.20;;;;;;5038431;28;20315;-55
2022/08/03 06:54:41;;;;;;;17.67;9.23;;;23.50;97.80;;;;;;5043744;28;20033;-55
2022/08/03 06:57:10;;;;;;;19.65;8.65;;;23.70;97.40;;;;;;5057616;28;20028;-55
2022/08/03 06:59:36;;;;;;;20.23;8.98;;;24.10;96.80;;;;;;5058270;28;20025;-55
2022/08/03 07:02:02;;;;;;;17.02;7.82;;;24.40;96.10;;;;;;5057182;28;20032;-55
2022/08/03 07:04:28;;;;;;;15.05;8.32;;;24.70;96.30;;;;;;5055349;28;20390;-55
2022/08/03 07:06:54;;;;;;;22.40;8.50;;;24.90;94.20;;;;;;5053024;28;20094;-55
2022/08/03 07:09:20;;;;;;;18.40;8.38;;;25.10;92.70;;;;;;5052574;28;20510;-55
2022/08/03 07:11:46;;;;;;;17.80;9.13;;;25.30;93.10;;;;;;5056716;28;20029;-55
2022/08/03 07:14:12;;;;;;;21.52;8.68;;;25.40;90.30;;;;;;5057588;28;20124;-55
2022/08/03 07:16:38;;;;;;;22.30;9.93;;;25.50;88.40;;;;;;5057695;28;20041;-55
2022/08/03 07:19:04;;;;;;;29.17;9.00;;;25.70;87.40;;;;;;5057993;28;20021;-55
2022/08/03 07:21:30;;;;;;;20.02;8.73;;;26.10;85.80;;;;;;5057868;28;20025;-55
2022/08/03 07:23:56;;;;;;;20.08;8.30;;;26.40;83.10;;;;;;5057649;28;20488;-55
2022/08/03 07:26:22;;;;;;;22.23;8.35;;;26.30;81.60;;;;;;5058138;28;20082;-58
2022/08/03 07:28:47;;;;;;;15.88;7.75;;;26.00;81.90;;;;;;5058096;28;20029;-55
2022/08/03 07:31:13;;;;;;;24.83;7.63;;;26.50;79.70;;;;;;5056980;28;20107;-55
2022/08/03 07:33:39;;;;;;;18.35;7.00;;;26.70;79.10;;;;;;5056034;28;20142;-55
2022/08/03 07:36:05;;;;;;;14.88;6.80;;;26.70;78.00;;;;;;5057079;28;20037;-56
2022/08/03 07:38:33;;;;;;;13.27;6.63;;;27.30;75.10;;;;;;5056866;28;20028;-56
2022/08/03 07:40:59;;;;;;;13.38;6.50;;;27.50;71.80;;;;;;5055874;28;20033;-55
2022/08/03 07:43:25;;;;;;;16.33;7.18;;;27.30;72.60;;;;;;5056220;28;20821;-55
2022/08/03 07:45:51;;;;;;;16.02;7.00;;;27.50;74.40;;;;;;5056887;28;20186;-56
2022/08/03 07:48:17;;;;;;;18.02;7.10;;;28.00;71.70;;;;;;5056078;28;20039;-56
2022/08/03 07:50:43;;;;;;;16.75;6.70;;;28.40;69.00;;;;;;5047232;28;20033;-56
2022/08/03 07:53:09;;;;;;;17.17;7.22;;;28.80;68.40;;;;;;5053412;28;20079;-56
2022/08/03 07:55:35;;;;;;;26.48;8.18;;;29.10;65.50;;;;;;5056716;28;20037;-56
2022/08/03 07:58:11;;;;;;;19.70;7.30;;;29.60;63.10;;;;;;5056107;28;20026;-56
2022/08/03 08:00:37;;;;;;;17.10;6.43;;;29.90;63.30;;;;;;5055744;28;20063;-56
2022/08/03 08:03:03;;;;;;;15.95;6.07;;;30.20;61.40;;;;;;5056659;28;20029;-56
2022/08/03 08:05:30;;;;;;;14.57;7.35;;;30.70;59.90;;;;;;5055074;28;20055;-56
2022/08/03 08:07:56;;;;;;;13.00;6.85;;;31.00;58.30;;;;;;5056172;28;20029;-56
2022/08/03 08:10:22;;;;;;;17.08;7.18;;;31.10;57.60;;;;;;5056623;28;20443;-56
2022/08/03 08:12:48;;;;;;;15.07;7.63;;;31.10;56.40;;;;;;5056158;28;20028;-56
2022/08/03 08:15:14;;;;;;;11.57;5.75;;;30.90;56.40;;;;;;5053185;28;20371;-56
2022/08/03 08:17:48;;;;;;;14.55;6.63;;;31.10;55.60;;;;;;5054917;28;20482;-56
2022/08/03 08:20:20;;;;;;;14.90;6.57;;;31.50;55.30;;;;;;5056322;28;20029;-56
2022/08/03 08:22:46;;;;;;;14.10;6.63;;;31.60;55.00;;;;;;5056216;28;20036;-56
2022/08/03 08:25:12;;;;;;;12.73;6.28;;;31.30;54.80;;;;;;5055724;28;20025;-56
2022/08/03 08:27:47;;;;;;;19.70;6.82;;;30.90;53.40;;;;;;5055918;28;20059;-56
2022/08/03 08:30:15;;;;;;;18.45;6.38;;;31.30;54.40;;;;;;5056368;28;20032;-56
2022/08/03 08:32:41;;;;;;;11.52;5.72;;;31.40;52.80;;;;;;5056065;28;20033;-56
2022/08/03 08:35:08;;;;;;;9.27;5.60;;;31.50;53.00;;;;;;5055882;28;20044;-56
2022/08/03 08:37:34;;;;;;;11.30;6.50;;;31.90;51.80;;;;;;5048821;28;20040;-56
2022/08/03 08:40:01;;;;;;;14.82;6.25;;;31.50;51.40;;;;;;5035980;28;20136;-56
2022/08/03 08:42:27;;;;;;;17.38;6.40;;;32.00;52.50;;;;;;5052284;28;20483;-56
2022/08/03 08:44:54;;;;;;;14.07;5.97;;;32.60;50.30;;;;;;5056003;28;20020;-56
2022/08/03 08:47:28;;;;;;;11.88;6.00;;;32.10;50.60;;;;;;5053735;28;20032;-56
2022/08/03 08:49:56;;;;;;;16.83;6.18;;;32.50;50.20;;;;;;5045930;28;20111;-56
2022/08/03 08:52:25;;;;;;;16.30;6.07;;;32.40;49.60;;;;;;5055809;28;20425;-56
2022/08/03 08:54:55;;;;;;;11.75;6.60;;;32.70;48.30;;;;;;5037604;28;20044;-56
2022/08/03 08:57:24;;;;;;;10.82;5.10;;;32.10;49.40;;;;;;5055593;28;20475;-56
2022/08/03 08:59:54;;;;;;;8.90;5.45;;;32.80;49.10;;;;;;5055631;28;20352;-56
2022/08/03 09:02:19;;;;;;;8.93;5.13;;;33.30;47.60;;;;;;5055599;28;20028;-56
2022/08/03 09:04:47;;;;;;;9.32;5.00;;;33.40;47.10;;;;;;5055334;28;20128;-56
2022/08/03 09:07:14;;;;;;;24.80;7.25;;;34.00;48.10;;;;;;5055406;28;20033;-56
2022/08/03 09:09:41;;;;;;;12.55;5.85;;;34.10;45.10;;;;;;5055349;28;20036;-56
2022/08/03 09:12:07;;;;;;;10.73;4.68;;;34.00;44.80;;;;;;5054098;28;20483;-56
2022/08/03 09:14:33;;;;;;;10.65;5.13;;;34.20;45.20;;;;;;5048254;28;20028;-56
2022/08/03 09:17:01;;;;;;;14.07;4.68;;;33.20;44.60;;;;;;5044805;28;20090;-56
2022/08/03 09:19:31;;;;;;;9.00;4.18;;;33.00;47.00;;;;;;5035293;28;20386;-56
2022/08/03 09:22:19;;;;;;;5.80;4.07;;;32.90;44.60;;;;;;5036066;28;20143;-56
2022/08/03 09:24:59;;;;;;;;;;;33.20;44.20;;;;;;5047700;28;20060;-56
2022/08/03 09:27:25;;;;;;;8.48;4.03;;;31.90;44.60;;;;;;5054268;28;19913;-56
2022/08/03 09:29:53;;;;;;;14.13;4.50;;;31.60;46.80;;;;;;5054068;28;20493;-56
2022/08/03 09:32:21;;;;;;;10.75;4.18;;;30.90;47.50;;;;;;5047083;28;20120;-56
2022/08/03 09:34:48;;;;;;;10.30;3.83;;;31.80;46.70;;;;;;5041189;28;20044;-56
2022/08/03 09:37:16;;;;;;;10.15;4.47;;;32.30;45.90;;;;;;5034382;28;20033;-56
2022/08/03 09:39:42;;;;;;;8.10;4.35;;;32.30;44.40;;;;;;5037670;28;20539;-56
2022/08/03 09:42:16;;;;;;;8.73;4.50;;;32.20;44.20;;;;;;5054270;28;20088;-56
2022/08/03 09:44:46;;;;;;;6.93;3.45;;;31.80;44.20;;;;;;5054364;28;20028;-56
2022/08/03 09:47:16;;;;;;;7.43;3.38;;;31.60;45.70;;;;;;5049087;28;20052;-56
2022/08/03 09:49:55;;;;;;;3.88;2.97;;;32.80;44.70;;;;;;5048845;28;20035;-56
2022/08/03 09:52:30;;;;;;;9.30;3.83;;;33.60;41.40;;;;;;5053879;28;20033;-56
2022/08/03 09:54:56;;;;;;;6.10;3.45;;;34.30;40.50;;;;;;5050386;28;20116;-56
2022/08/03 09:57:24;;;;;;;5.18;2.80;;;34.70;41.50;;;;;;5036785;28;20029;-56
2022/08/03 10:00:04;;;;;;;6.43;2.85;;;34.20;38.70;;;;;;5045984;28;20052;-56
2022/08/03 10:02:39;;;;;;;6.47;3.00;;;35.00;38.60;;;;;;5038624;28;20037;-56
2022/08/03 10:05:07;;;;;;;7.10;2.92;;;35.40;37.70;;;;;;5049354;28;20037;-56
2022/08/03 10:07:47;;;;;;;2.90;2.45;;;34.40;36.60;;;;;;5035652;28;20021;-56
2022/08/03 10:10:14;;;;;;;5.60;2.78;;;33.70;38.90;;;;;;5051537;28;20040;-56
2022/08/03 10:12:41;;;;;;;3.63;2.65;;;34.20;39.10;;;;;;5049936;22;20056;-95
2022/08/03 10:15:09;;;;;;;4.63;2.50;;;34.90;38.60;;;;;;5018937;28;20021;-94
2022/08/03 10:17:36;;;;;;;6.10;3.40;;;35.40;36.90;;;;;;5002318;28;20470;-94
2022/08/03 10:20:06;;;;;;;10.40;4.25;;;35.90;35.50;;;;;;5034616;28;20447;-95
2022/08/03 10:22:38;;;;;;;8.98;2.72;;;35.90;35.30;;;;;;5017871;28;20037;-95
2022/08/03 10:25:08;;;;;;;6.53;2.90;;;36.30;35.90;;;;;;5028287;28;20059;-95
2022/08/03 10:27:39;;;;;;;;;;;36.80;35.30;;;;;;5017038;28;20076;-94
2022/08/03 10:30:09;;;;;;;6.78;3.40;;;35.40;35.00;;;;;;5035542;28;19909;-94
2022/08/03 10:33:00;;;;;;;3.42;2.17;;;35.30;35.30;;;;;;5019005;28;20033;-94
2022/08/03 10:35:28;;;;;;;10.82;3.90;;;35.60;35.10;;;;;;5002703;28;20138;-94
2022/08/03 10:37:59;;;;;;;4.45;2.60;;;34.50;36.50;;;;;;5018441;28;20033;-94
2022/08/03 10:40:28;;;;;;;3.00;2.53;;;35.80;35.80;;;;;;5012370;28;20021;-90
2022/08/03 10:42:58;;;;;;;7.20;2.63;;;36.20;33.30;;;;;;5033862;28;20116;-89
2022/08/03 10:45:26;;;;;;;7.32;3.22;;;35.40;35.50;;;;;;5033398;28;20033;-93
2022/08/03 10:47:54;;;;;;;9.30;3.22;;;35.40;35.00;;;;;;5001113;28;20053;-90
2022/08/03 10:50:23;;;;;;;13.98;4.75;;;34.30;35.20;;;;;;4999508;28;20030;-91
2022/08/03 10:53:05;;;;;;;11.13;2.67;;;34.20;36.30;;;;;;5035354;28;20087;-90
2022/08/03 10:58:37;;;;;;;;;;;34.70;36.20;;;;;;5033746;28;20072;-90
2022/08/03 11:01:08;;;;;;;7.65;3.17;;;35.30;36.70;;;;;;5033462;28;19909;-90
2022/08/03 11:03:54;;;;;;;5.55;2.83;;;35.80;34.50;;;;;;5017437;28;20030;-90
2022/08/03 11:06:25;;;;;;;3.90;2.85;;;36.50;36.20;;;;;;5017454;28;20495;-90
2022/08/03 11:09:09;;;;;;;40.17;8.00;;;36.50;34.50;;;;;;5017426;28;20033;-89
2022/08/03 11:11:39;;;;;;;10.10;3.83;;;36.40;34.00;;;;;;5016786;28;20095;-90
2022/08/03 11:14:08;;;;;;;12.23;3.75;;;35.60;35.10;;;;;;5016671;28;20042;-89
2022/08/03 11:16:46;;;;;;;4.93;2.90;;;35.40;35.50;;;;;;5034378;28;20033;-89
2022/08/03 11:19:15;;;;;;;4.60;2.60;;;35.30;36.00;;;;;;5036418;28;20087;-91
2022/08/03 11:21:50;;;;;;;6.28;3.05;;;35.80;36.20;;;;;;5000629;28;20033;-89
2022/08/03 11:24:50;;;;;;;4.63;2.53;;;35.30;34.70;;;;;;5013529;28;20026;-90
2022/08/03 11:27:16;;;;;;;;;;;35.30;35.60;;;;;;5033776;28;20087;-89
2022/08/03 11:30:03;;;;;;;19.23;3.95;;;35.90;35.60;;;;;;5033224;28;19913;-90
2022/08/03 11:32:43;;;;;;;6.22;3.30;;;36.60;35.30;;;;;;5017099;28;20029;-90
2022/08/03 11:35:35;;;;;;;4.28;2.58;;;36.30;32.80;;;;;;5044269;28;20088;-90
2022/08/03 11:38:03;;;;;;;4.55;2.47;;;36.40;33.30;;;;;;5034461;28;20069;-89
2022/08/03 11:40:40;;;;;;;2.58;2.30;;;36.40;33.50;;;;;;5035542;28;20426;-92
2022/08/03 11:43:09;;;;;;;10.02;2.88;;;35.70;33.10;;;;;;5018933;28;20065;-93
2022/08/03 11:45:36;;;;;;;14.48;3.03;;;35.50;33.50;;;;;;5037316;28;20053;-94
2022/08/03 11:48:14;;;;;;;12.35;4.07;;;34.80;35.00;;;;;;5037915;28;20025;-93
2022/08/03 11:50:44;;;;;;;9.80;4.40;;;34.10;37.40;;;;;;5046256;28;20122;-93
2022/08/03 11:53:17;;;;;;;16.33;4.38;;;34.20;37.80;;;;;;5045860;28;20037;-93
2022/08/03 11:55:47;;;;;;;5.40;2.90;;;34.10;38.80;;;;;;5045158;28;20048;-93
2022/08/03 11:58:31;;;;;;;7.45;2.97;;;33.50;40.90;;;;;;5019914;28;20036;-93
2022/08/03 12:01:06;;;;;;;9.60;3.33;;;33.30;41.30;;;;;;5020772;28;20039;-93
2022/08/03 12:03:33;;;;;;;5.65;2.72;;;33.00;42.30;;;;;;5052914;28;20368;-93
2022/08/03 12:06:03;;;;;;;4.28;2.28;;;32.80;43.50;;;;;;5036895;28;20446;-93
2022/08/03 12:08:31;;;;;;;8.90;2.90;;;32.50;43.20;;;;;;5037253;28;20103;-93
2022/08/03 12:11:00;;;;;;;9.50;2.75;;;32.30;45.50;;;;;;5020681;28;20061;-93
2022/08/03 12:13:26;;;;;;;6.03;2.30;;;32.30;43.40;;;;;;5004171;28;20120;-93
2022/08/03 12:15:54;;;;;;;6.82;2.33;;;32.10;44.20;;;;;;5036580;28;20025;-93
2022/08/03 12:18:21;;;;;;;3.45;2.20;;;31.80;47.80;;;;;;5036957;28;20061;-93
2022/08/03 12:20:49;;;;;;;4.10;1.95;;;32.00;43.60;;;;;;5015079;28;20032;-93
2022/08/03 12:23:16;;;;;;;2.28;1.90;;;32.00;42.50;;;;;;5056994;28;20052;-94
2022/08/03 12:25:43;;;;;;;2.60;2.00;;;31.90;42.80;;;;;;5010665;28;20099;-94
2022/08/03 12:28:22;;;;;;;7.57;3.20;;;31.80;44.30;;;;;;5003491;28;20053;-93
2022/08/03 12:30:51;;;;;;;3.22;2.08;;;32.20;42.70;;;;;;5036675;28;20025;-93
2022/08/03 12:33:20;;;;;;;6.18;2.40;;;32.60;42.50;;;;;;5012278;28;20111;-95
2022/08/03 12:36:02;;;;;;;6.80;3.05;;;33.20;41.80;;;;;;5020088;28;20043;-93
2022/08/03 12:38:29;;;;;;;9.13;3.40;;;33.70;39.60;;;;;;5017358;28;20029;-93
2022/08/03 12:40:57;;;;;;;7.05;3.22;;;34.60;38.90;;;;;;5031201;28;20483;-93
2022/08/03 12:43:24;;;;;;;7.10;2.80;;;35.40;37.00;;;;;;5020444;28;20021;-94
2022/08/03 12:45:50;;;;;;;7.43;3.00;;;36.00;33.70;;;;;;5020001;28;20026;-94
2022/08/03 12:48:16;;;;;;;8.45;3.00;;;36.40;34.30;;;;;;5018584;28;20030;-91
2022/08/03 12:50:42;;;;;;;5.80;2.63;;;37.00;33.60;;;;;;5036371;28;20033;-92
2022/08/03 12:53:09;;;;;;;5.45;2.80;;;37.40;32.50;;;;;;5036455;28;20033;-92
2022/08/03 12:55:38;;;;;;;6.90;2.63;;;37.10;30.50;;;;;;5029876;28;20029;-93
2022/08/03 12:58:06;;;;;;;5.05;2.33;;;35.70;31.90;;;;;;5020767;28;20037;-93
2022/08/03 13:00:33;;;;;;;4.18;2.15;;;35.70;32.00;;;;;;5035567;28;20028;-92
2022/08/03 13:03:08;;;;;;;7.35;3.03;;;35.80;31.90;;;;;;5019399;28;20033;-94
2022/08/03 13:05:45;;;;;;;3.28;2.25;;;35.60;31.40;;;;;;5038157;28;20117;-94
2022/08/03 13:08:19;;;;;;;10.07;2.70;;;35.50;32.20;;;;;;4990655;28;20035;-94
2022/08/03 13:10:47;;;;;;;10.80;3.80;;;34.90;34.10;;;;;;4996629;28;20037;-94